createdAt,value
2023-02-09T00:00:15.186Z,38.22
2023-02-09T00:00:48.410Z,32.38
2023-02-09T00:01:23.419Z,32.30
2023-02-09T00:01:55.118Z,35.08
2023-02-09T00:02:26.886Z,36.50
2023-02-09T00:02:58.504Z,33.78
2023-02-09T00:03:30.643Z,35.80
2023-02-09T00:04:04.916Z,31.63
2023-02-09T00:04:36.561Z,31.85
2023-02-09T00:05:09.371Z,30.88
2023-02-09T00:05:41.023Z,33.88
2023-02-09T00:06:16.053Z,32.97
2023-02-09T00:06:47.669Z,31.80
2023-02-09T00:07:19.396Z,36.60
2023-02-09T00:07:51.178Z,35.20
2023-02-09T00:08:23.123Z,36.80
2023-02-09T00:08:54.779Z,36.13
2023-02-09T00:09:26.391Z,36.78
2023-02-09T00:09:57.968Z,33.38
2023-02-09T00:10:29.540Z,35.88
2023-02-09T00:11:01.332Z,28.23
2023-02-09T00:11:51.827Z,36.35
2023-02-09T00:12:41.710Z,33.97
2023-02-09T00:13:25.434Z,31.55
2023-02-09T00:13:57.113Z,32.95
2023-02-09T00:14:28.753Z,33.60
2023-02-09T00:15:00.435Z,37.38
2023-02-09T00:15:32.274Z,36.03
2023-02-09T00:16:04.808Z,35.70
2023-02-09T00:16:36.460Z,43.67
2023-02-09T00:17:08.936Z,34.17
2023-02-09T00:17:40.525Z,34.05
2023-02-09T00:18:12.097Z,37.83
2023-02-09T00:18:43.789Z,33.83
2023-02-09T00:19:15.732Z,35.35
2023-02-09T00:19:47.417Z,29.77
2023-02-09T00:20:19.147Z,41.08
2023-02-09T00:21:04.706Z,33.22
2023-02-09T00:21:36.529Z,37.28
2023-02-09T00:22:08.149Z,33.60
2023-02-09T00:22:39.902Z,37.90
2023-02-09T00:23:11.517Z,30.13
2023-02-09T00:23:43.226Z,36.30
2023-02-09T00:24:15.225Z,35.67
2023-02-09T00:24:46.826Z,31.60
2023-02-09T00:25:18.575Z,30.17
2023-02-09T00:25:51.475Z,36.17
2023-02-09T00:26:23.067Z,36.45
2023-02-09T00:26:54.775Z,31.42
2023-02-09T00:27:26.440Z,35.50
2023-02-09T00:27:58.263Z,34.15
2023-02-09T00:28:30.550Z,33.58
2023-02-09T00:29:02.559Z,36.75
2023-02-09T00:29:34.213Z,33.75
2023-02-09T00:30:06.328Z,37.20
2023-02-09T00:30:38.156Z,33.55
2023-02-09T00:31:11.761Z,36.80
2023-02-09T00:31:43.562Z,35.10
2023-02-09T00:32:15.345Z,37.05
2023-02-09T00:32:47.339Z,33.88
2023-02-09T00:33:18.976Z,35.22
2023-02-09T00:33:50.778Z,34.47
2023-02-09T00:34:22.445Z,37.08
2023-02-09T00:34:54.092Z,34.83
2023-02-09T00:35:25.919Z,39.35
2023-02-09T00:35:57.492Z,39.63
2023-02-09T00:36:29.655Z,39.97
2023-02-09T00:37:01.271Z,37.38
2023-02-09T00:37:35.070Z,36.70
2023-02-09T00:38:06.896Z,36.17
2023-02-09T00:38:39.401Z,35.38
2023-02-09T00:39:10.980Z,33.80
2023-02-09T00:39:42.677Z,41.83
2023-02-09T00:40:14.301Z,37.60
2023-02-09T00:40:47.956Z,38.10
2023-02-09T00:41:43.237Z,35.47
2023-02-09T00:42:14.898Z,35.05
2023-02-09T00:42:46.511Z,36.63
2023-02-09T00:43:18.540Z,33.10
2023-02-09T00:43:50.150Z,35.35
2023-02-09T00:44:21.737Z,36.80
2023-02-09T00:44:53.337Z,33.50
2023-02-09T00:45:25.001Z,31.88
2023-02-09T00:45:56.788Z,34.10
2023-02-09T00:46:28.358Z,34.80
2023-02-09T00:47:00.295Z,32.47
2023-02-09T00:47:31.971Z,35.88
2023-02-09T00:48:03.749Z,33.65
2023-02-09T00:48:35.420Z,29.38
2023-02-09T00:49:07.373Z,29.55
2023-02-09T00:49:40.157Z,28.90
2023-02-09T00:50:11.788Z,31.10
2023-02-09T00:50:43.652Z,30.55
2023-02-09T00:51:15.424Z,33.83
2023-02-09T00:51:47.046Z,32.15
2023-02-09T00:52:18.698Z,43.53
2023-02-09T00:52:50.479Z,39.97
2023-02-09T00:53:22.944Z,39.70
2023-02-09T00:53:54.569Z,34.25
2023-02-09T00:54:26.244Z,31.23
2023-02-09T00:54:57.886Z,33.65
2023-02-09T00:55:29.529Z,35.42
2023-02-09T00:56:01.220Z,35.75
2023-02-09T00:56:32.835Z,36.35
2023-02-09T00:57:05.514Z,32.55
2023-02-09T00:57:37.228Z,32.72
2023-02-09T00:58:08.980Z,35.17
2023-02-09T00:58:40.609Z,33.72
2023-02-09T00:59:12.685Z,35.28
2023-02-09T00:59:44.355Z,31.17
2023-02-09T01:00:17.161Z,36.00
2023-02-09T01:00:49.854Z,33.60
2023-02-09T01:01:21.726Z,35.67
2023-02-09T01:01:53.358Z,32.17
2023-02-09T01:02:24.943Z,35.60
2023-02-09T01:02:57.437Z,30.40
2023-02-09T01:03:29.122Z,33.05
2023-02-09T01:04:00.734Z,30.42
2023-02-09T01:04:32.995Z,29.92
2023-02-09T01:05:05.142Z,31.00
2023-02-09T01:05:42.169Z,35.08
2023-02-09T01:06:14.036Z,30.35
2023-02-09T01:06:45.649Z,32.95
2023-02-09T01:07:17.311Z,32.20
2023-02-09T01:07:49.113Z,34.13
2023-02-09T01:08:20.826Z,31.52
2023-02-09T01:08:52.659Z,32.15
2023-02-09T01:09:24.863Z,32.38
2023-02-09T01:09:56.856Z,31.23
2023-02-09T01:10:28.441Z,33.35
2023-02-09T01:11:00.056Z,33.55
2023-02-09T01:11:31.900Z,32.60
2023-02-09T01:12:04.848Z,32.75
2023-02-09T01:12:40.791Z,33.90
2023-02-09T01:13:12.439Z,31.27
2023-02-09T01:13:44.713Z,31.05
2023-02-09T01:14:16.884Z,31.35
2023-02-09T01:14:48.609Z,34.40
2023-02-09T01:15:20.372Z,33.65
2023-02-09T01:15:52.220Z,35.45
2023-02-09T01:16:24.412Z,33.15
2023-02-09T01:16:56.178Z,32.28
2023-02-09T01:17:28.672Z,34.13
2023-02-09T01:18:00.765Z,33.50
2023-02-09T01:18:33.358Z,32.28
2023-02-09T01:19:05.395Z,32.25
2023-02-09T01:19:37.314Z,35.97
2023-02-09T01:20:09.870Z,31.95
2023-02-09T01:20:42.438Z,34.38
2023-02-09T01:21:19.927Z,34.45
2023-02-09T01:21:51.533Z,33.63
2023-02-09T01:22:23.766Z,35.97
2023-02-09T01:22:55.495Z,32.15
2023-02-09T01:23:27.118Z,33.58
2023-02-09T01:23:58.920Z,38.92
2023-02-09T01:24:30.934Z,40.15
2023-02-09T01:25:02.760Z,40.42
2023-02-09T01:25:34.399Z,42.55
2023-02-09T01:26:08.384Z,42.67
2023-02-09T01:26:40.526Z,49.40
2023-02-09T01:27:12.154Z,51.92
2023-02-09T01:27:43.783Z,49.33
2023-02-09T01:28:15.506Z,52.65
2023-02-09T01:28:52.499Z,85.70
2023-02-09T01:29:24.174Z,75.03
2023-02-09T01:29:55.831Z,70.80
2023-02-09T01:30:27.632Z,71.53
2023-02-09T01:30:59.421Z,64.25
2023-02-09T01:31:33.930Z,57.28
2023-02-09T01:32:05.858Z,55.80
2023-02-09T01:32:37.494Z,53.08
2023-02-09T01:33:09.116Z,53.38
2023-02-09T01:33:40.795Z,43.47
2023-02-09T01:34:15.193Z,40.40
2023-02-09T01:34:51.250Z,34.20
2023-02-09T01:35:22.909Z,40.03
2023-02-09T01:35:58.715Z,34.45
2023-02-09T01:36:32.001Z,35.10
2023-02-09T01:37:04.549Z,35.05
2023-02-09T01:37:36.202Z,33.47
2023-02-09T01:38:07.852Z,36.92
2023-02-09T01:38:39.454Z,39.70
2023-02-09T01:39:12.901Z,37.47
2023-02-09T01:39:44.673Z,40.42
2023-02-09T01:40:16.303Z,43.22
2023-02-09T01:40:49.151Z,36.10
2023-02-09T01:41:20.871Z,36.70
2023-02-09T01:41:53.017Z,37.83
2023-02-09T01:42:24.708Z,30.90
2023-02-09T01:42:56.294Z,31.25
2023-02-09T01:43:27.970Z,34.55
2023-02-09T01:44:19.877Z,35.35
2023-02-09T01:45:33.218Z,37.53
2023-02-09T01:46:05.013Z,39.83
2023-02-09T01:46:38.635Z,38.28
2023-02-09T01:47:18.847Z,39.90
2023-02-09T01:47:56.530Z,37.75
2023-02-09T01:48:30.792Z,40.83
2023-02-09T01:49:09.411Z,43.75
2023-02-09T01:49:41.478Z,41.20
2023-02-09T01:50:13.579Z,37.40
2023-02-09T01:50:49.795Z,40.60
2023-02-09T01:51:21.826Z,41.25
2023-02-09T01:52:23.221Z,41.85
2023-02-09T01:52:55.381Z,40.28
2023-02-09T01:53:27.981Z,37.70
2023-02-09T01:53:59.715Z,37.95
2023-02-09T01:54:43.947Z,39.60
2023-02-09T01:55:20.430Z,39.67
2023-02-09T01:55:58.062Z,38.53
2023-02-09T01:56:31.399Z,33.42
2023-02-09T01:57:07.368Z,33.25
2023-02-09T01:57:44.497Z,34.63
2023-02-09T01:58:18.602Z,35.95
2023-02-09T01:58:50.432Z,34.92
2023-02-09T01:59:23.670Z,35.17
2023-02-09T02:00:05.317Z,38.35
2023-02-09T02:00:37.023Z,34.75
2023-02-09T02:01:09.061Z,31.38
2023-02-09T02:01:41.786Z,31.55
2023-02-09T02:02:15.240Z,33.78
2023-02-09T02:03:00.241Z,33.90
2023-02-09T02:03:32.437Z,34.97
2023-02-09T02:04:05.064Z,35.47
2023-02-09T02:04:37.888Z,37.50
2023-02-09T02:05:10.350Z,32.90
2023-02-09T02:05:44.327Z,35.65
2023-02-09T02:06:18.480Z,34.58
2023-02-09T02:06:54.138Z,33.63
2023-02-09T02:07:38.220Z,33.00
2023-02-09T02:08:39.159Z,32.00
2023-02-09T02:09:13.802Z,29.50
2023-02-09T02:09:46.354Z,30.92
2023-02-09T02:10:18.405Z,31.42
2023-02-09T02:10:51.349Z,29.23
2023-02-09T02:11:27.661Z,30.20
2023-02-09T02:11:59.370Z,30.30
2023-02-09T02:12:32.754Z,30.27
2023-02-09T02:13:04.353Z,31.60
2023-02-09T02:13:36.029Z,29.80
2023-02-09T02:14:07.813Z,30.58
2023-02-09T02:14:40.683Z,32.72
2023-02-09T02:15:12.656Z,30.77
2023-02-09T02:16:18.527Z,33.15
2023-02-09T02:16:59.195Z,30.45
2023-02-09T02:18:08.200Z,29.70
2023-02-09T02:19:07.784Z,30.10
2023-02-09T02:20:00.976Z,31.60
2023-02-09T02:20:44.733Z,32.97
2023-02-09T02:21:57.732Z,33.45
2023-02-09T02:23:24.847Z,33.35
2023-02-09T02:24:02.231Z,31.42
2023-02-09T02:25:12.100Z,29.88
2023-02-09T02:26:02.287Z,34.67
2023-02-09T02:26:54.153Z,31.60
2023-02-09T02:27:28.654Z,38.25
2023-02-09T02:28:32.215Z,33.00
2023-02-09T02:29:44.680Z,32.40
2023-02-09T02:30:43.666Z,34.33
2023-02-09T02:31:27.237Z,30.95
2023-02-09T02:32:10.581Z,33.28
2023-02-09T02:33:07.156Z,32.25
2023-02-09T02:33:50.799Z,32.15
2023-02-09T02:34:40.152Z,31.90
2023-02-09T02:35:37.158Z,33.17
2023-02-09T02:36:17.924Z,30.67
2023-02-09T02:37:16.111Z,29.85
2023-02-09T02:38:02.894Z,29.52
2023-02-09T02:39:09.528Z,28.15
2023-02-09T02:40:04.751Z,35.38
2023-02-09T02:40:40.784Z,28.92
2023-02-09T02:41:21.988Z,32.75
2023-02-09T02:42:18.190Z,31.13
2023-02-09T02:42:53.278Z,33.40
2023-02-09T02:43:38.606Z,35.58
2023-02-09T02:44:17.267Z,31.77
2023-02-09T02:45:12.293Z,36.05
2023-02-09T02:45:51.738Z,34.90
2023-02-09T02:47:03.451Z,33.67
2023-02-09T02:47:39.514Z,33.72
2023-02-09T02:48:25.143Z,31.90
2023-02-09T02:49:14.231Z,34.60
2023-02-09T02:50:00.721Z,41.28
2023-02-09T02:50:36.131Z,50.65
2023-02-09T02:51:46.614Z,54.47
2023-02-09T02:52:18.231Z,58.85
2023-02-09T02:52:56.525Z,58.13
2023-02-09T02:53:34.142Z,50.00
2023-02-09T02:54:11.726Z,51.20
2023-02-09T02:54:50.075Z,42.25
2023-02-09T02:55:25.641Z,39.75
2023-02-09T02:56:03.157Z,38.60
2023-02-09T02:56:45.644Z,39.33
2023-02-09T02:57:21.391Z,34.70
2023-02-09T02:57:57.692Z,32.60
2023-02-09T02:58:31.398Z,32.20
2023-02-09T02:59:08.006Z,34.42
2023-02-09T02:59:47.172Z,30.60
2023-02-09T03:00:23.630Z,33.25
2023-02-09T03:00:58.481Z,32.15
2023-02-09T03:01:35.419Z,32.25
2023-02-09T03:02:24.448Z,33.20
2023-02-09T03:03:02.289Z,30.95
2023-02-09T03:03:36.591Z,31.67
2023-02-09T03:04:09.827Z,33.78
2023-02-09T03:04:44.515Z,32.97
2023-02-09T03:05:17.732Z,32.53
2023-02-09T03:05:50.479Z,32.25
2023-02-09T03:06:22.193Z,31.20
2023-02-09T03:06:54.058Z,32.25
2023-02-09T03:07:26.120Z,33.08
2023-02-09T03:07:57.735Z,32.42
2023-02-09T03:08:29.388Z,31.55
2023-02-09T03:09:01.205Z,32.10
2023-02-09T03:09:32.822Z,31.15
2023-02-09T03:10:24.051Z,31.05
2023-02-09T03:10:56.184Z,30.85
2023-02-09T03:11:36.105Z,29.65
2023-02-09T03:12:18.494Z,30.58
2023-02-09T03:13:25.423Z,30.95
2023-02-09T03:14:12.921Z,26.10
2023-02-09T03:14:56.807Z,27.60
2023-02-09T03:15:51.136Z,29.25
2023-02-09T03:16:34.039Z,29.63
2023-02-09T03:17:23.816Z,29.60
2023-02-09T03:18:33.486Z,30.05
2023-02-09T03:19:30.199Z,28.70
2023-02-09T03:20:20.389Z,28.30
2023-02-09T03:21:01.705Z,31.25
2023-02-09T03:21:57.123Z,28.20
2023-02-09T03:22:31.507Z,29.40
2023-02-09T03:23:06.961Z,32.45
2023-02-09T03:23:47.409Z,30.92
2023-02-09T03:24:31.844Z,31.08
2023-02-09T03:25:14.349Z,31.98
2023-02-09T03:25:51.357Z,31.77
2023-02-09T03:26:29.087Z,30.55
2023-02-09T03:27:21.859Z,27.75
2023-02-09T03:28:14.860Z,29.60
2023-02-09T03:28:52.333Z,27.48
2023-02-09T03:29:25.887Z,27.95
2023-02-09T03:30:01.102Z,28.02
2023-02-09T03:30:34.586Z,31.58
2023-02-09T03:31:07.570Z,33.30
2023-02-09T03:31:40.220Z,31.00
2023-02-09T03:32:12.164Z,34.08
2023-02-09T03:32:46.310Z,31.00
2023-02-09T03:33:21.119Z,28.33
2023-02-09T03:33:52.971Z,31.48
2023-02-09T03:34:24.595Z,31.58
2023-02-09T03:34:57.004Z,31.92
2023-02-09T03:35:38.775Z,28.58
2023-02-09T03:36:16.989Z,29.55
2023-02-09T03:36:56.452Z,37.85
2023-02-09T03:37:28.190Z,29.63
2023-02-09T03:38:00.659Z,35.20
2023-02-09T03:38:32.280Z,32.13
2023-02-09T03:39:04.800Z,30.52
2023-02-09T03:39:36.604Z,32.58
2023-02-09T03:40:09.436Z,32.63
2023-02-09T03:40:41.075Z,32.20
2023-02-09T03:41:12.691Z,34.55
2023-02-09T03:41:44.679Z,34.05
2023-02-09T03:42:16.315Z,33.63
2023-02-09T03:42:49.071Z,31.52
2023-02-09T03:43:20.853Z,33.95
2023-02-09T03:44:10.947Z,31.25
2023-02-09T03:44:42.541Z,32.38
2023-02-09T03:45:14.196Z,32.85
2023-02-09T03:45:46.006Z,31.50
2023-02-09T03:46:17.647Z,32.10
2023-02-09T03:46:49.380Z,31.88
2023-02-09T03:47:21.119Z,31.77
2023-02-09T03:47:52.823Z,31.73
2023-02-09T03:48:24.397Z,31.80
2023-02-09T03:48:56.009Z,32.33
2023-02-09T03:49:31.764Z,36.70
2023-02-09T03:50:04.481Z,32.08
2023-02-09T03:50:36.685Z,36.00
2023-02-09T03:51:08.465Z,35.08
2023-02-09T03:51:40.228Z,35.63
2023-02-09T03:52:14.298Z,32.97
2023-02-09T03:52:45.871Z,35.17
2023-02-09T03:53:17.797Z,35.22
2023-02-09T03:53:49.482Z,32.28
2023-02-09T03:54:21.773Z,35.03
2023-02-09T03:54:53.418Z,34.33
2023-02-09T03:55:25.258Z,32.72
2023-02-09T03:55:56.876Z,34.47
2023-02-09T03:56:28.451Z,35.20
2023-02-09T03:57:01.259Z,33.22
2023-02-09T03:57:32.967Z,34.47
2023-02-09T03:58:04.598Z,36.40
2023-02-09T03:58:37.312Z,34.13
2023-02-09T03:59:09.119Z,33.67
2023-02-09T03:59:41.105Z,34.15
2023-02-09T04:00:13.543Z,37.10
2023-02-09T04:00:45.605Z,34.58
2023-02-09T04:01:18.036Z,34.95
2023-02-09T04:01:49.725Z,34.78
2023-02-09T04:02:21.503Z,32.80
2023-02-09T04:02:53.189Z,35.42
2023-02-09T04:03:24.784Z,35.22
2023-02-09T04:03:56.400Z,38.53
2023-02-09T04:04:28.010Z,36.22
2023-02-09T04:04:59.713Z,38.30
2023-02-09T04:05:32.948Z,38.30
2023-02-09T04:06:04.989Z,36.45
2023-02-09T04:06:37.787Z,36.15
2023-02-09T04:07:09.413Z,35.17
2023-02-09T04:07:41.484Z,34.78
2023-02-09T04:08:13.060Z,37.20
2023-02-09T04:08:44.689Z,35.47
2023-02-09T04:09:16.380Z,38.78
2023-02-09T04:09:48.028Z,34.85
2023-02-09T04:10:19.819Z,37.80
2023-02-09T04:10:51.406Z,33.53
2023-02-09T04:11:23.584Z,33.65
2023-02-09T04:11:55.944Z,35.50
2023-02-09T04:12:27.689Z,39.28
2023-02-09T04:12:59.384Z,33.17
2023-02-09T04:13:30.967Z,34.20
2023-02-09T04:14:02.931Z,37.22
2023-02-09T04:14:34.704Z,38.17
2023-02-09T04:15:06.671Z,38.72
2023-02-09T04:15:39.132Z,40.45
2023-02-09T04:16:10.791Z,42.08
2023-02-09T04:16:42.602Z,38.97
2023-02-09T04:17:14.254Z,36.40
2023-02-09T04:17:45.868Z,40.33
2023-02-09T04:18:17.722Z,39.60
2023-02-09T04:18:49.436Z,36.78
2023-02-09T04:19:21.111Z,40.92
2023-02-09T04:19:53.068Z,39.85
2023-02-09T04:20:24.650Z,42.78
2023-02-09T04:20:56.257Z,36.88
2023-02-09T04:21:27.970Z,37.38
2023-02-09T04:22:00.195Z,40.60
2023-02-09T04:22:31.918Z,38.25
2023-02-09T04:23:03.613Z,48.85
2023-02-09T04:23:35.255Z,42.72
2023-02-09T04:24:08.186Z,45.10
2023-02-09T04:24:39.959Z,41.00
2023-02-09T04:25:11.805Z,39.30
2023-02-09T04:25:43.747Z,42.35
2023-02-09T04:26:15.931Z,43.50
2023-02-09T04:26:47.522Z,46.90
2023-02-09T04:27:19.139Z,50.95
2023-02-09T04:27:50.796Z,48.55
2023-02-09T04:28:22.579Z,49.22
2023-02-09T04:28:54.230Z,48.58
2023-02-09T04:29:26.660Z,46.10
2023-02-09T04:29:58.368Z,47.83
2023-02-09T04:30:29.959Z,43.75
2023-02-09T04:31:01.743Z,43.67
2023-02-09T04:31:34.961Z,45.47
2023-02-09T04:32:06.715Z,42.88
2023-02-09T04:32:38.348Z,43.63
2023-02-09T04:33:11.465Z,38.63
2023-02-09T04:33:43.169Z,39.88
2023-02-09T04:34:14.851Z,38.10
2023-02-09T04:34:46.468Z,41.17
2023-02-09T04:35:18.246Z,36.58
2023-02-09T04:35:50.821Z,38.42
2023-02-09T04:36:23.533Z,39.05
2023-02-09T04:36:55.188Z,40.40
2023-02-09T04:37:26.812Z,37.83
2023-02-09T04:37:58.459Z,40.55
2023-02-09T04:38:30.353Z,40.85
2023-02-09T04:39:02.199Z,40.85
2023-02-09T04:39:33.803Z,42.08
2023-02-09T04:40:07.725Z,40.42
2023-02-09T04:40:39.464Z,45.13
2023-02-09T04:41:11.241Z,40.88
2023-02-09T04:41:42.821Z,39.58
2023-02-09T04:42:14.398Z,41.28
2023-02-09T04:42:46.897Z,45.08
2023-02-09T04:43:18.713Z,41.13
2023-02-09T04:43:50.346Z,45.05
2023-02-09T04:44:21.941Z,44.72
2023-02-09T04:44:53.568Z,35.63
2023-02-09T04:45:25.189Z,40.28
2023-02-09T04:45:57.786Z,44.13
2023-02-09T04:46:29.569Z,43.97
2023-02-09T04:47:01.199Z,39.90
2023-02-09T04:47:32.884Z,42.60
2023-02-09T04:48:04.814Z,44.75
2023-02-09T04:48:36.376Z,41.25
2023-02-09T04:49:07.947Z,42.28
2023-02-09T04:49:39.603Z,41.15
2023-02-09T04:50:11.389Z,41.78
2023-02-09T04:50:43.613Z,39.65
2023-02-09T04:51:15.918Z,38.67
2023-02-09T04:51:47.485Z,37.65
2023-02-09T04:52:19.358Z,39.38
2023-02-09T04:52:51.679Z,40.08
2023-02-09T04:53:23.599Z,37.55
2023-02-09T04:53:55.199Z,38.35
2023-02-09T04:54:26.913Z,40.58
2023-02-09T04:54:58.521Z,39.63
2023-02-09T04:55:30.356Z,38.72
2023-02-09T04:56:02.004Z,38.58
2023-02-09T04:56:33.713Z,38.22
2023-02-09T04:57:24.074Z,37.85
2023-02-09T04:58:16.821Z,36.08
2023-02-09T04:59:07.425Z,37.78
2023-02-09T04:59:40.630Z,37.42
2023-02-09T05:00:12.915Z,37.30
2023-02-09T05:00:44.917Z,36.65
2023-02-09T05:01:23.986Z,46.72
2023-02-09T05:01:55.675Z,42.92
2023-02-09T05:02:27.237Z,44.17
2023-02-09T05:02:58.831Z,44.95
2023-02-09T05:03:30.861Z,44.63
2023-02-09T05:04:02.544Z,45.35
2023-02-09T05:04:34.155Z,44.58
2023-02-09T05:05:06.054Z,42.40
2023-02-09T05:05:40.764Z,42.72
2023-02-09T05:06:12.546Z,50.30
2023-02-09T05:06:44.122Z,47.95
2023-02-09T05:07:15.744Z,49.88
2023-02-09T05:07:47.419Z,46.67
2023-02-09T05:08:18.984Z,46.75
2023-02-09T05:08:50.639Z,45.80
2023-02-09T05:09:22.239Z,45.42
2023-02-09T05:09:53.850Z,46.40
2023-02-09T05:10:25.544Z,48.15
2023-02-09T05:10:57.396Z,46.38
2023-02-09T05:11:28.997Z,43.40
2023-02-09T05:12:00.629Z,43.47
2023-02-09T05:12:32.202Z,46.65
2023-02-09T05:13:03.884Z,43.00
2023-02-09T05:13:35.681Z,40.75
2023-02-09T05:14:07.999Z,42.90
2023-02-09T05:14:39.602Z,42.60
2023-02-09T05:15:11.255Z,38.92
2023-02-09T05:15:42.899Z,37.90
2023-02-09T05:16:17.802Z,39.50
2023-02-09T05:16:49.518Z,40.30
2023-02-09T05:17:21.310Z,39.42
2023-02-09T05:17:52.982Z,38.45
2023-02-09T05:18:25.419Z,37.50
2023-02-09T05:18:57.372Z,37.13
2023-02-09T05:19:29.161Z,37.25
2023-02-09T05:20:00.810Z,37.40
2023-02-09T05:20:32.459Z,41.88
2023-02-09T05:21:04.148Z,43.33
2023-02-09T05:21:35.775Z,40.58
2023-02-09T05:22:07.424Z,37.65
2023-02-09T05:22:39.035Z,41.25
2023-02-09T05:23:11.378Z,38.97
2023-02-09T05:23:43.085Z,38.78
2023-02-09T05:24:14.703Z,43.55
2023-02-09T05:24:46.438Z,41.40
2023-02-09T05:25:18.186Z,39.42
2023-02-09T05:25:49.927Z,40.80
2023-02-09T05:26:21.526Z,40.25
2023-02-09T05:26:53.111Z,37.75
2023-02-09T05:27:24.736Z,41.78
2023-02-09T05:27:56.435Z,40.88
2023-02-09T05:28:28.208Z,39.72
2023-02-09T05:28:59.828Z,41.10
2023-02-09T05:29:31.497Z,39.90
2023-02-09T05:30:03.783Z,44.55
2023-02-09T05:30:35.416Z,44.30
2023-02-09T05:31:07.112Z,43.20
2023-02-09T05:31:38.886Z,40.55
2023-02-09T05:32:10.721Z,52.78
2023-02-09T05:32:42.428Z,51.85
2023-02-09T05:33:14.109Z,56.38
2023-02-09T05:33:45.718Z,46.50
2023-02-09T05:34:17.337Z,43.63
2023-02-09T05:34:48.936Z,47.83
2023-02-09T05:35:20.539Z,45.92
2023-02-09T05:35:53.369Z,43.60
2023-02-09T05:36:25.051Z,42.85
2023-02-09T05:36:56.868Z,41.45
2023-02-09T05:37:28.472Z,38.03
2023-02-09T05:38:00.112Z,41.85
2023-02-09T05:38:31.727Z,44.50
2023-02-09T05:39:03.555Z,37.30
2023-02-09T05:39:35.192Z,41.63
2023-02-09T05:40:07.567Z,42.90
2023-02-09T05:40:39.332Z,40.17
2023-02-09T05:41:33.063Z,41.38
2023-02-09T05:42:16.878Z,55.40
2023-02-09T05:42:48.474Z,37.67
2023-02-09T05:43:20.178Z,51.10
2023-02-09T05:43:51.748Z,40.20
2023-02-09T05:44:23.575Z,49.78
2023-02-09T05:44:55.264Z,52.67
2023-02-09T05:45:26.941Z,51.80
2023-02-09T05:45:58.719Z,47.88
2023-02-09T05:46:30.581Z,41.55
2023-02-09T05:47:02.251Z,39.42
2023-02-09T05:47:34.126Z,41.78
2023-02-09T05:48:05.936Z,39.30
2023-02-09T05:48:37.876Z,41.13
2023-02-09T05:49:09.462Z,45.03
2023-02-09T05:49:41.462Z,40.35
2023-02-09T05:50:13.041Z,43.38
2023-02-09T05:50:45.023Z,47.55
2023-02-09T05:51:16.772Z,38.80
2023-02-09T05:51:48.563Z,42.03
2023-02-09T05:52:20.547Z,43.83
2023-02-09T05:52:52.293Z,43.92
2023-02-09T05:53:23.867Z,44.40
2023-02-09T05:53:56.399Z,45.38
2023-02-09T05:54:28.115Z,57.75
2023-02-09T05:54:59.725Z,52.28
2023-02-09T05:55:31.339Z,53.10
2023-02-09T05:56:03.048Z,44.08
2023-02-09T05:56:35.706Z,52.08
2023-02-09T05:57:07.432Z,54.88
2023-02-09T05:57:39.048Z,69.70
2023-02-09T05:58:10.613Z,96.70
2023-02-09T05:58:42.187Z,130.93
2023-02-09T05:59:14.082Z,206.25
2023-02-09T05:59:45.797Z,278.85
2023-02-09T06:00:17.543Z,284.33
2023-02-09T06:00:49.150Z,189.77
2023-02-09T06:01:20.732Z,191.40
2023-02-09T06:01:52.788Z,157.40
2023-02-09T06:02:24.469Z,158.40
2023-02-09T06:02:57.009Z,104.63
2023-02-09T06:03:28.641Z,71.05
2023-02-09T06:04:00.515Z,78.38
2023-02-09T06:04:32.859Z,62.40
2023-02-09T06:05:05.433Z,67.90
2023-02-09T06:05:37.015Z,45.00
2023-02-09T06:06:08.688Z,42.92
2023-02-09T06:06:40.355Z,42.80
2023-02-09T06:07:12.175Z,44.95
2023-02-09T06:07:43.948Z,37.28
2023-02-09T06:08:15.668Z,42.58
2023-02-09T06:08:47.278Z,38.53
2023-02-09T06:09:19.639Z,39.17
2023-02-09T06:09:51.480Z,39.47
2023-02-09T06:10:23.418Z,36.22
2023-02-09T06:10:55.024Z,38.22
2023-02-09T06:11:27.109Z,39.47
2023-02-09T06:11:58.777Z,38.55
2023-02-09T06:12:30.479Z,42.47
2023-02-09T06:13:02.343Z,38.35
2023-02-09T06:13:34.037Z,39.13
2023-02-09T06:14:05.919Z,44.33
2023-02-09T06:14:37.602Z,40.65
2023-02-09T06:15:10.611Z,41.60
2023-02-09T06:15:42.310Z,41.00
2023-02-09T06:16:13.940Z,38.80
2023-02-09T06:16:45.806Z,37.67
2023-02-09T06:17:17.463Z,41.30
2023-02-09T06:17:49.152Z,39.65
2023-02-09T06:18:20.789Z,43.40
2023-02-09T06:18:52.611Z,37.83
2023-02-09T06:19:24.455Z,39.80
2023-02-09T06:19:56.259Z,42.08
2023-02-09T06:20:27.855Z,39.53
2023-02-09T06:20:59.622Z,38.55
2023-02-09T06:21:31.255Z,40.67
2023-02-09T06:22:02.895Z,41.50
2023-02-09T06:22:34.528Z,40.22
2023-02-09T06:23:06.218Z,38.38
2023-02-09T06:23:38.444Z,38.28
2023-02-09T06:24:10.906Z,39.63
2023-02-09T06:24:42.470Z,38.55
2023-02-09T06:25:14.412Z,31.10
2023-02-09T06:25:46.082Z,38.28
2023-02-09T06:26:19.053Z,37.13
2023-02-09T06:26:50.662Z,39.90
2023-02-09T06:27:22.269Z,41.90
2023-02-09T06:27:53.940Z,34.38
2023-02-09T06:28:25.620Z,49.40
2023-02-09T06:28:57.378Z,37.55
2023-02-09T06:29:29.159Z,37.20
2023-02-09T06:30:00.845Z,39.55
2023-02-09T06:30:33.009Z,37.08
2023-02-09T06:31:05.760Z,37.95
2023-02-09T06:31:38.516Z,41.65
2023-02-09T06:32:10.393Z,40.05
2023-02-09T06:32:42.108Z,41.05
2023-02-09T06:33:13.707Z,40.13
2023-02-09T06:33:45.396Z,41.22
2023-02-09T06:34:17.041Z,47.65
2023-02-09T06:34:48.824Z,37.33
2023-02-09T06:35:20.482Z,41.03
2023-02-09T06:35:52.512Z,40.42
2023-02-09T06:36:24.193Z,41.13
2023-02-09T06:36:55.834Z,37.83
2023-02-09T06:37:27.549Z,36.40
2023-02-09T06:37:59.231Z,41.45
2023-02-09T06:38:31.979Z,40.40
2023-02-09T06:39:08.347Z,39.30
2023-02-09T06:39:39.943Z,38.90
2023-02-09T06:40:12.003Z,38.97
2023-02-09T06:40:44.128Z,44.33
2023-02-09T06:41:16.012Z,39.80
2023-02-09T06:41:47.666Z,38.80
2023-02-09T06:42:19.535Z,40.17
2023-02-09T06:42:51.157Z,44.33
2023-02-09T06:43:22.930Z,47.08
2023-02-09T06:43:54.623Z,42.95
2023-02-09T06:44:26.239Z,44.63
2023-02-09T06:44:59.514Z,42.38
2023-02-09T06:45:31.164Z,48.47
2023-02-09T06:46:11.303Z,50.58
2023-02-09T06:46:43.061Z,44.75
2023-02-09T06:47:14.673Z,47.17
2023-02-09T06:47:46.595Z,47.03
2023-02-09T06:48:18.282Z,47.08
2023-02-09T06:48:50.022Z,41.30
2023-02-09T06:49:24.131Z,48.92
2023-02-09T06:49:55.935Z,45.15
2023-02-09T06:50:27.691Z,45.67
2023-02-09T06:50:59.493Z,44.72
2023-02-09T06:51:31.420Z,47.45
2023-02-09T06:52:03.320Z,45.55
2023-02-09T06:52:34.943Z,44.22
2023-02-09T06:53:07.119Z,44.10
2023-02-09T06:53:39.862Z,43.53
2023-02-09T06:54:11.430Z,43.53
2023-02-09T06:54:44.900Z,45.50
2023-02-09T06:55:16.867Z,49.35
2023-02-09T06:55:48.511Z,50.13
2023-02-09T06:56:20.734Z,62.65
2023-02-09T06:56:52.611Z,63.15
2023-02-09T06:57:24.378Z,60.40
2023-02-09T06:57:56.325Z,86.30
2023-02-09T06:58:28.702Z,96.88
2023-02-09T06:59:00.278Z,85.93
2023-02-09T06:59:31.887Z,83.82
2023-02-09T07:00:08.921Z,118.20
2023-02-09T07:00:40.637Z,121.55
2023-02-09T07:01:15.784Z,99.43
2023-02-09T07:01:53.503Z,128.43
2023-02-09T07:02:25.910Z,114.63
2023-02-09T07:02:59.423Z,128.50
2023-02-09T07:03:31.395Z,193.40
2023-02-09T07:04:03.346Z,148.52
2023-02-09T07:04:34.942Z,153.98
2023-02-09T07:05:07.026Z,112.30
2023-02-09T07:05:38.612Z,81.03
2023-02-09T07:06:18.584Z,99.07
2023-02-09T07:06:50.544Z,59.85
2023-02-09T07:07:23.119Z,61.08
2023-02-09T07:07:56.408Z,53.00
2023-02-09T07:08:27.997Z,54.80
2023-02-09T07:08:59.822Z,52.78
2023-02-09T07:09:31.450Z,52.05
2023-02-09T07:10:04.775Z,53.10
2023-02-09T07:10:36.520Z,49.38
2023-02-09T07:11:11.529Z,51.67
2023-02-09T07:11:43.879Z,51.47
2023-02-09T07:12:15.562Z,52.63
2023-02-09T07:12:47.187Z,49.75
2023-02-09T07:13:18.772Z,54.50
2023-02-09T07:13:50.358Z,52.05
2023-02-09T07:14:21.963Z,49.45
2023-02-09T07:14:53.904Z,52.38
2023-02-09T07:15:25.569Z,53.22
2023-02-09T07:15:58.769Z,52.80
2023-02-09T07:16:30.395Z,55.20
2023-02-09T07:17:02.002Z,51.65
2023-02-09T07:17:33.926Z,51.88
2023-02-09T07:18:05.864Z,53.47
2023-02-09T07:18:38.154Z,64.45
2023-02-09T07:19:09.733Z,51.78
2023-02-09T07:19:41.406Z,55.70
2023-02-09T07:20:13.853Z,54.83
2023-02-09T07:20:45.764Z,55.35
2023-02-09T07:21:19.991Z,56.13
2023-02-09T07:21:51.651Z,55.08
2023-02-09T07:22:25.634Z,49.00